sensor_id;sensor_type;location;lat;lon;timestamp;temperature;humidity
23371;DHT22;11858;51.056;3.712;2024-02-23T00:01:04;5.90;99.90
23371;DHT22;11858;51.056;3.712;2024-02-23T00:03:30;5.90;99.90
23371;DHT22;11858;51.056;3.712;2024-02-23T00:05:55;5.90;99.90
23371;DHT22;11858;51.056;3.712;2024-02-23T00:08:21;5.90;99.90
23371;DHT22;11858;51.056;3.712;2024-02-23T00:10:47;5.90;99.90
23371;DHT22;11858;51.056;3.712;2024-02-23T00:13:13;5.90;99.90
23371;DHT22;11858;51.056;3.712;2024-02-23T00:15:39;5.80;99.90
23371;DHT22;11858;51.056;3.712;2024-02-23T00:18:04;6.00;99.90
23371;DHT22;11858;51.056;3.712;2024-02-23T00:20:31;6.20;99.90
23371;DHT22;11858;51.056;3.712;2024-02-23T00:22:57;6.10;99.90
23371;DHT22;11858;51.056;3.712;2024-02-23T00:25:22;6.20;99.90
23371;DHT22;11858;51.056;3.712;2024-02-23T00:27:49;6.30;99.90
23371;DHT22;11858;51.056;3.712;2024-02-23T00:30:15;6.10;99.90
23371;DHT22;11858;51.056;3.712;2024-02-23T00:32:41;6.00;99.90
23371;DHT22;11858;51.056;3.712;2024-02-23T00:35:07;6.10;99.90
23371;DHT22;11858;51.056;3.712;2024-02-23T00:37:33;6.10;99.90
23371;DHT22;11858;51.056;3.712;2024-02-23T00:40:04;6.00;99.90
23371;DHT22;11858;51.056;3.712;2024-02-23T00:42:30;6.00;99.90
23371;DHT22;11858;51.056;3.712;2024-02-23T00:44:56;5.90;99.90
23371;DHT22;11858;51.056;3.712;2024-02-23T00:47:22;5.90;99.90
23371;DHT22;11858;51.056;3.712;2024-02-23T00:49:48;5.90;99.90
23371;DHT22;11858;51.056;3.712;2024-02-23T00:52:15;5.90;99.90
23371;DHT22;11858;51.056;3.712;2024-02-23T00:54:41;5.80;99.90
23371;DHT22;11858;51.056;3.712;2024-02-23T00:57:07;5.70;99.90
23371;DHT22;11858;51.056;3.712;2024-02-23T00:59:32;5.80;99.90
23371;DHT22;11858;51.056;3.712;2024-02-23T01:01:58;5.70;99.90
23371;DHT22;11858;51.056;3.712;2024-02-23T01:04:24;5.60;99.90
23371;DHT22;11858;51.056;3.712;2024-02-23T01:06:50;5.80;99.90
23371;DHT22;11858;51.056;3.712;2024-02-23T01:09:15;5.80;99.90
23371;DHT22;11858;51.056;3.712;2024-02-23T01:11:48;5.70;99.90
23371;DHT22;11858;51.056;3.712;2024-02-23T01:14:14;5.60;99.90
23371;DHT22;11858;51.056;3.712;2024-02-23T01:16:40;5.60;99.90
23371;DHT22;11858;51.056;3.712;2024-02-23T01:19:05;5.70;99.90
23371;DHT22;11858;51.056;3.712;2024-02-23T01:21:31;5.70;99.90
23371;DHT22;11858;51.056;3.712;2024-02-23T01:23:57;5.70;99.90
23371;DHT22;11858;51.056;3.712;2024-02-23T01:26:23;5.70;99.90
23371;DHT22;11858;51.056;3.712;2024-02-23T01:28:49;5.80;99.90
23371;DHT22;11858;51.056;3.712;2024-02-23T01:31:15;5.80;99.90
23371;DHT22;11858;51.056;3.712;2024-02-23T01:33:41;5.80;99.90
23371;DHT22;11858;51.056;3.712;2024-02-23T01:36:07;5.80;99.90
23371;DHT22;11858;51.056;3.712;2024-02-23T01:38:33;5.90;99.90
23371;DHT22;11858;51.056;3.712;2024-02-23T01:40:59;5.80;99.90
23371;DHT22;11858;51.056;3.712;2024-02-23T01:43:25;5.70;99.90
23371;DHT22;11858;51.056;3.712;2024-02-23T01:45:51;5.60;99.90
23371;DHT22;11858;51.056;3.712;2024-02-23T01:48:18;5.80;99.90
23371;DHT22;11858;51.056;3.712;2024-02-23T01:50:44;5.80;99.90
23371;DHT22;11858;51.056;3.712;2024-02-23T01:53:12;5.80;99.90
23371;DHT22;11858;51.056;3.712;2024-02-23T01:55:45;5.90;99.90
23371;DHT22;11858;51.056;3.712;2024-02-23T01:58:12;5.80;99.90
23371;DHT22;11858;51.056;3.712;2024-02-23T02:00:38;5.80;99.90
23371;DHT22;11858;51.056;3.712;2024-02-23T02:03:04;5.90;99.90
23371;DHT22;11858;51.056;3.712;2024-02-23T02:05:30;6.00;99.90
23371;DHT22;11858;51.056;3.712;2024-02-23T02:07:56;5.90;99.90
23371;DHT22;11858;51.056;3.712;2024-02-23T02:10:25;5.90;99.90
23371;DHT22;11858;51.056;3.712;2024-02-23T02:12:51;6.00;99.90
23371;DHT22;11858;51.056;3.712;2024-02-23T02:15:17;6.00;99.90
23371;DHT22;11858;51.056;3.712;2024-02-23T02:17:42;5.90;99.90
23371;DHT22;11858;51.056;3.712;2024-02-23T02:20:12;5.90;99.90
23371;DHT22;11858;51.056;3.712;2024-02-23T02:22:41;6.00;99.90
23371;DHT22;11858;51.056;3.712;2024-02-23T02:25:07;6.00;99.90
23371;DHT22;11858;51.056;3.712;2024-02-23T02:27:33;5.90;99.90
23371;DHT22;11858;51.056;3.712;2024-02-23T02:29:59;5.80;99.90
23371;DHT22;11858;51.056;3.712;2024-02-23T02:32:24;5.90;99.90
23371;DHT22;11858;51.056;3.712;2024-02-23T02:34:50;5.90;99.90
23371;DHT22;11858;51.056;3.712;2024-02-23T02:37:16;5.90;99.90
23371;DHT22;11858;51.056;3.712;2024-02-23T02:39:42;5.70;99.90
23371;DHT22;11858;51.056;3.712;2024-02-23T02:42:08;5.70;99.90
23371;DHT22;11858;51.056;3.712;2024-02-23T02:44:34;5.80;99.90
23371;DHT22;11858;51.056;3.712;2024-02-23T02:47:00;5.80;99.90
23371;DHT22;11858;51.056;3.712;2024-02-23T02:49:26;5.90;99.90
23371;DHT22;11858;51.056;3.712;2024-02-23T02:51:51;5.80;99.90
23371;DHT22;11858;51.056;3.712;2024-02-23T02:54:17;5.90;99.90
23371;DHT22;11858;51.056;3.712;2024-02-23T02:56:44;6.00;99.90
23371;DHT22;11858;51.056;3.712;2024-02-23T02:59:12;5.90;99.90
23371;DHT22;11858;51.056;3.712;2024-02-23T03:01:37;6.00;99.90
23371;DHT22;11858;51.056;3.712;2024-02-23T03:04:03;6.00;99.90
23371;DHT22;11858;51.056;3.712;2024-02-23T03:06:29;6.20;99.90
23371;DHT22;11858;51.056;3.712;2024-02-23T03:08:55;6.20;99.90
23371;DHT22;11858;51.056;3.712;2024-02-23T03:11:21;6.10;99.90
23371;DHT22;11858;51.056;3.712;2024-02-23T03:13:47;6.00;99.90
23371;DHT22;11858;51.056;3.712;2024-02-23T03:16:20;6.10;99.90
23371;DHT22;11858;51.056;3.712;2024-02-23T03:18:46;6.20;99.90
23371;DHT22;11858;51.056;3.712;2024-02-23T03:21:12;6.10;99.90
23371;DHT22;11858;51.056;3.712;2024-02-23T03:23:41;6.00;99.90
23371;DHT22;11858;51.056;3.712;2024-02-23T03:26:07;6.10;99.90
23371;DHT22;11858;51.056;3.712;2024-02-23T03:28:33;6.00;99.90
23371;DHT22;11858;51.056;3.712;2024-02-23T03:31:00;6.30;99.90
23371;DHT22;11858;51.056;3.712;2024-02-23T03:33:26;6.30;99.90
23371;DHT22;11858;51.056;3.712;2024-02-23T03:35:52;6.40;99.90
23371;DHT22;11858;51.056;3.712;2024-02-23T03:38:17;6.30;99.90
23371;DHT22;11858;51.056;3.712;2024-02-23T03:40:43;6.20;99.90
23371;DHT22;11858;51.056;3.712;2024-02-23T03:43:09;6.30;99.90
23371;DHT22;11858;51.056;3.712;2024-02-23T03:45:35;6.20;99.90
23371;DHT22;11858;51.056;3.712;2024-02-23T03:48:03;6.10;99.90
23371;DHT22;11858;51.056;3.712;2024-02-23T03:50:29;6.10;99.90
23371;DHT22;11858;51.056;3.712;2024-02-23T03:52:55;6.10;99.90
23371;DHT22;11858;51.056;3.712;2024-02-23T03:55:21;6.20;99.90
23371;DHT22;11858;51.056;3.712;2024-02-23T03:57:47;6.20;99.90
23371;DHT22;11858;51.056;3.712;2024-02-23T04:00:14;6.10;99.90
23371;DHT22;11858;51.056;3.712;2024-02-23T04:02:39;6.20;99.90
23371;DHT22;11858;51.056;3.712;2024-02-23T04:05:06;6.10;99.90
23371;DHT22;11858;51.056;3.712;2024-02-23T04:07:32;6.20;99.90
23371;DHT22;11858;51.056;3.712;2024-02-23T04:09:58;6.20;99.90
23371;DHT22;11858;51.056;3.712;2024-02-23T04:12:24;6.10;99.90
23371;DHT22;11858;51.056;3.712;2024-02-23T04:14:50;6.10;99.90
23371;DHT22;11858;51.056;3.712;2024-02-23T04:17:16;6.20;99.90
23371;DHT22;11858;51.056;3.712;2024-02-23T04:19:43;6.10;99.90
23371;DHT22;11858;51.056;3.712;2024-02-23T04:22:09;6.10;99.90
23371;DHT22;11858;51.056;3.712;2024-02-23T04:24:39;6.00;99.90
23371;DHT22;11858;51.056;3.712;2024-02-23T04:27:06;6.00;99.90
23371;DHT22;11858;51.056;3.712;2024-02-23T04:29:32;6.00;99.90
23371;DHT22;11858;51.056;3.712;2024-02-23T04:31:59;6.00;99.90
23371;DHT22;11858;51.056;3.712;2024-02-23T04:34:25;5.90;99.90
23371;DHT22;11858;51.056;3.712;2024-02-23T04:36:51;5.90;99.90
23371;DHT22;11858;51.056;3.712;2024-02-23T04:39:17;6.00;99.90
23371;DHT22;11858;51.056;3.712;2024-02-23T04:41:42;6.00;99.90
23371;DHT22;11858;51.056;3.712;2024-02-23T04:44:08;6.10;99.90
23371;DHT22;11858;51.056;3.712;2024-02-23T04:46:34;6.00;99.90
23371;DHT22;11858;51.056;3.712;2024-02-23T04:49:01;6.00;99.90
23371;DHT22;11858;51.056;3.712;2024-02-23T04:51:27;6.10;99.90
23371;DHT22;11858;51.056;3.712;2024-02-23T04:53:52;6.00;99.90
23371;DHT22;11858;51.056;3.712;2024-02-23T04:56:18;6.00;99.90
23371;DHT22;11858;51.056;3.712;2024-02-23T04:58:44;6.00;99.90
23371;DHT22;11858;51.056;3.712;2024-02-23T05:01:10;6.00;99.90
23371;DHT22;11858;51.056;3.712;2024-02-23T05:03:36;6.00;99.90
23371;DHT22;11858;51.056;3.712;2024-02-23T05:06:03;5.90;99.90
23371;DHT22;11858;51.056;3.712;2024-02-23T05:08:30;5.90;99.90
23371;DHT22;11858;51.056;3.712;2024-02-23T05:10:56;5.80;99.90
23371;DHT22;11858;51.056;3.712;2024-02-23T05:13:23;5.70;99.90
23371;DHT22;11858;51.056;3.712;2024-02-23T05:15:48;5.90;99.90
23371;DHT22;11858;51.056;3.712;2024-02-23T05:18:14;5.80;99.90
23371;DHT22;11858;51.056;3.712;2024-02-23T05:20:40;5.80;99.90
23371;DHT22;11858;51.056;3.712;2024-02-23T05:23:06;5.70;99.90
23371;DHT22;11858;51.056;3.712;2024-02-23T05:25:31;5.80;99.90
23371;DHT22;11858;51.056;3.712;2024-02-23T05:27:57;5.70;99.90
23371;DHT22;11858;51.056;3.712;2024-02-23T05:30:23;5.80;99.90
23371;DHT22;11858;51.056;3.712;2024-02-23T05:32:49;5.70;99.90
23371;DHT22;11858;51.056;3.712;2024-02-23T05:35:14;5.70;99.90
23371;DHT22;11858;51.056;3.712;2024-02-23T05:37:41;5.70;99.90
23371;DHT22;11858;51.056;3.712;2024-02-23T05:40:07;5.70;99.90
23371;DHT22;11858;51.056;3.712;2024-02-23T05:42:37;5.80;99.90
23371;DHT22;11858;51.056;3.712;2024-02-23T05:45:04;5.80;99.90
23371;DHT22;11858;51.056;3.712;2024-02-23T05:47:40;5.80;99.90
23371;DHT22;11858;51.056;3.712;2024-02-23T05:50:08;5.90;99.90
23371;DHT22;11858;51.056;3.712;2024-02-23T05:52:35;5.90;99.90
23371;DHT22;11858;51.056;3.712;2024-02-23T05:55:05;5.90;99.90
23371;DHT22;11858;51.056;3.712;2024-02-23T05:57:31;6.00;99.90
23371;DHT22;11858;51.056;3.712;2024-02-23T05:59:57;5.90;99.90
23371;DHT22;11858;51.056;3.712;2024-02-23T06:02:23;6.00;99.90
23371;DHT22;11858;51.056;3.712;2024-02-23T06:04:49;6.00;99.90
23371;DHT22;11858;51.056;3.712;2024-02-23T06:07:15;5.90;99.90
23371;DHT22;11858;51.056;3.712;2024-02-23T06:09:42;5.90;99.90
23371;DHT22;11858;51.056;3.712;2024-02-23T06:12:08;5.90;99.90
23371;DHT22;11858;51.056;3.712;2024-02-23T06:14:34;6.00;99.90
23371;DHT22;11858;51.056;3.712;2024-02-23T06:17:00;6.10;99.90
23371;DHT22;11858;51.056;3.712;2024-02-23T06:19:26;6.10;99.90
23371;DHT22;11858;51.056;3.712;2024-02-23T06:21:52;6.20;99.90
23371;DHT22;11858;51.056;3.712;2024-02-23T06:24:18;6.10;99.90
23371;DHT22;11858;51.056;3.712;2024-02-23T06:26:45;6.10;99.90
23371;DHT22;11858;51.056;3.712;2024-02-23T06:29:11;6.10;99.90
23371;DHT22;11858;51.056;3.712;2024-02-23T06:31:38;6.20;99.90
23371;DHT22;11858;51.056;3.712;2024-02-23T06:34:05;6.20;99.90
23371;DHT22;11858;51.056;3.712;2024-02-23T06:36:31;6.10;99.90
23371;DHT22;11858;51.056;3.712;2024-02-23T06:38:56;6.30;99.90
23371;DHT22;11858;51.056;3.712;2024-02-23T06:41:22;6.30;99.90
23371;DHT22;11858;51.056;3.712;2024-02-23T06:43:48;6.20;99.90
23371;DHT22;11858;51.056;3.712;2024-02-23T06:46:14;6.20;99.90
23371;DHT22;11858;51.056;3.712;2024-02-23T06:48:40;6.20;99.90
23371;DHT22;11858;51.056;3.712;2024-02-23T06:51:06;6.10;99.90
23371;DHT22;11858;51.056;3.712;2024-02-23T06:53:35;6.10;99.90
23371;DHT22;11858;51.056;3.712;2024-02-23T06:56:01;6.20;99.90
23371;DHT22;11858;51.056;3.712;2024-02-23T06:58:28;6.30;99.90
23371;DHT22;11858;51.056;3.712;2024-02-23T07:00:53;6.40;99.90
23371;DHT22;11858;51.056;3.712;2024-02-23T07:03:19;6.50;99.90
23371;DHT22;11858;51.056;3.712;2024-02-23T07:05:45;6.50;99.90
23371;DHT22;11858;51.056;3.712;2024-02-23T07:08:12;6.40;99.90
23371;DHT22;11858;51.056;3.712;2024-02-23T07:10:38;6.40;99.90
23371;DHT22;11858;51.056;3.712;2024-02-23T07:13:04;6.50;99.90
23371;DHT22;11858;51.056;3.712;2024-02-23T07:15:30;6.60;99.90
23371;DHT22;11858;51.056;3.712;2024-02-23T07:17:58;6.70;99.90
23371;DHT22;11858;51.056;3.712;2024-02-23T07:20:24;6.80;99.90
23371;DHT22;11858;51.056;3.712;2024-02-23T07:22:49;6.70;99.90
23371;DHT22;11858;51.056;3.712;2024-02-23T07:25:19;6.70;99.90
23371;DHT22;11858;51.056;3.712;2024-02-23T07:27:47;6.50;99.90
23371;DHT22;11858;51.056;3.712;2024-02-23T07:30:16;6.30;99.90
23371;DHT22;11858;51.056;3.712;2024-02-23T07:32:46;6.20;99.90
23371;DHT22;11858;51.056;3.712;2024-02-23T07:35:12;6.20;99.90
23371;DHT22;11858;51.056;3.712;2024-02-23T07:37:38;6.10;99.90
23371;DHT22;11858;51.056;3.712;2024-02-23T07:40:04;6.20;99.90
23371;DHT22;11858;51.056;3.712;2024-02-23T07:42:33;6.10;99.90
23371;DHT22;11858;51.056;3.712;2024-02-23T07:45:02;6.10;99.90
23371;DHT22;11858;51.056;3.712;2024-02-23T07:47:32;6.10;99.90
23371;DHT22;11858;51.056;3.712;2024-02-23T07:49:58;6.10;99.90
23371;DHT22;11858;51.056;3.712;2024-02-23T07:52:24;6.30;99.90
23371;DHT22;11858;51.056;3.712;2024-02-23T07:54:52;6.30;99.90
23371;DHT22;11858;51.056;3.712;2024-02-23T07:57:19;6.30;99.90
23371;DHT22;11858;51.056;3.712;2024-02-23T07:59:44;6.40;99.90
23371;DHT22;11858;51.056;3.712;2024-02-23T08:02:10;6.40;99.90
23371;DHT22;11858;51.056;3.712;2024-02-23T08:04:36;6.40;99.90
23371;DHT22;11858;51.056;3.712;2024-02-23T08:07:03;6.40;99.90
23371;DHT22;11858;51.056;3.712;2024-02-23T08:09:29;6.50;99.90
23371;DHT22;11858;51.056;3.712;2024-02-23T08:11:56;6.60;99.90
23371;DHT22;11858;51.056;3.712;2024-02-23T08:14:21;6.80;99.90
23371;DHT22;11858;51.056;3.712;2024-02-23T08:16:47;6.70;99.90
23371;DHT22;11858;51.056;3.712;2024-02-23T08:19:13;6.70;99.90
23371;DHT22;11858;51.056;3.712;2024-02-23T08:21:39;6.70;99.90
23371;DHT22;11858;51.056;3.712;2024-02-23T08:24:06;6.70;99.90
23371;DHT22;11858;51.056;3.712;2024-02-23T08:26:32;6.80;99.90
23371;DHT22;11858;51.056;3.712;2024-02-23T08:28:59;6.90;99.90
23371;DHT22;11858;51.056;3.712;2024-02-23T08:31:25;7.00;99.90
23371;DHT22;11858;51.056;3.712;2024-02-23T08:33:51;7.00;99.90
23371;DHT22;11858;51.056;3.712;2024-02-23T08:36:16;7.00;99.90
23371;DHT22;11858;51.056;3.712;2024-02-23T08:38:42;6.90;99.90
23371;DHT22;11858;51.056;3.712;2024-02-23T08:41:08;6.90;99.90
23371;DHT22;11858;51.056;3.712;2024-02-23T08:43:34;6.80;99.90
23371;DHT22;11858;51.056;3.712;2024-02-23T08:46:00;6.90;99.90
23371;DHT22;11858;51.056;3.712;2024-02-23T08:48:25;7.10;99.90
23371;DHT22;11858;51.056;3.712;2024-02-23T08:50:51;7.00;99.90
23371;DHT22;11858;51.056;3.712;2024-02-23T08:53:17;7.10;99.90
23371;DHT22;11858;51.056;3.712;2024-02-23T08:55:43;7.10;99.90
23371;DHT22;11858;51.056;3.712;2024-02-23T08:58:08;7.10;99.90
23371;DHT22;11858;51.056;3.712;2024-02-23T09:00:35;7.20;99.90
23371;DHT22;11858;51.056;3.712;2024-02-23T09:03:02;7.20;99.90
23371;DHT22;11858;51.056;3.712;2024-02-23T09:05:28;7.10;99.90
23371;DHT22;11858;51.056;3.712;2024-02-23T09:07:55;7.00;99.90
23371;DHT22;11858;51.056;3.712;2024-02-23T09:10:21;7.10;99.90
23371;DHT22;11858;51.056;3.712;2024-02-23T09:12:47;7.20;99.90
23371;DHT22;11858;51.056;3.712;2024-02-23T09:15:12;7.20;99.90
23371;DHT22;11858;51.056;3.712;2024-02-23T09:17:40;7.30;99.90
23371;DHT22;11858;51.056;3.712;2024-02-23T09:20:06;7.40;99.90
23371;DHT22;11858;51.056;3.712;2024-02-23T09:22:32;7.30;99.90
23371;DHT22;11858;51.056;3.712;2024-02-23T09:24:58;7.30;99.90
23371;DHT22;11858;51.056;3.712;2024-02-23T09:27:24;7.30;99.90
23371;DHT22;11858;51.056;3.712;2024-02-23T09:29:50;7.30;99.90
23371;DHT22;11858;51.056;3.712;2024-02-23T09:32:16;7.50;99.90
23371;DHT22;11858;51.056;3.712;2024-02-23T09:34:41;7.60;99.90
23371;DHT22;11858;51.056;3.712;2024-02-23T09:37:08;7.50;99.90
23371;DHT22;11858;51.056;3.712;2024-02-23T09:39:33;7.40;99.90
23371;DHT22;11858;51.056;3.712;2024-02-23T09:42:01;7.40;99.90
23371;DHT22;11858;51.056;3.712;2024-02-23T09:44:32;7.60;99.90
23371;DHT22;11858;51.056;3.712;2024-02-23T09:47:04;7.70;99.90
23371;DHT22;11858;51.056;3.712;2024-02-23T09:49:40;7.40;99.90
23371;DHT22;11858;51.056;3.712;2024-02-23T09:52:09;7.40;99.90
23371;DHT22;11858;51.056;3.712;2024-02-23T09:54:37;7.40;99.90
23371;DHT22;11858;51.056;3.712;2024-02-23T09:57:07;7.50;99.90
23371;DHT22;11858;51.056;3.712;2024-02-23T09:59:34;7.40;99.90
23371;DHT22;11858;51.056;3.712;2024-02-23T10:02:01;7.50;99.90
23371;DHT22;11858;51.056;3.712;2024-02-23T10:04:29;7.60;99.90
23371;DHT22;11858;51.056;3.712;2024-02-23T10:06:56;7.50;99.90
23371;DHT22;11858;51.056;3.712;2024-02-23T10:09:23;7.60;99.90
23371;DHT22;11858;51.056;3.712;2024-02-23T10:11:54;7.70;99.90
23371;DHT22;11858;51.056;3.712;2024-02-23T10:14:20;7.70;99.90
23371;DHT22;11858;51.056;3.712;2024-02-23T10:16:47;7.80;99.90
23371;DHT22;11858;51.056;3.712;2024-02-23T10:19:13;8.00;99.90
23371;DHT22;11858;51.056;3.712;2024-02-23T10:21:39;8.20;99.90
23371;DHT22;11858;51.056;3.712;2024-02-23T10:24:06;8.50;99.90
23371;DHT22;11858;51.056;3.712;2024-02-23T10:26:32;8.50;99.90
23371;DHT22;11858;51.056;3.712;2024-02-23T10:28:57;8.50;99.90
23371;DHT22;11858;51.056;3.712;2024-02-23T10:31:24;8.50;99.90
23371;DHT22;11858;51.056;3.712;2024-02-23T10:33:51;8.60;99.90
23371;DHT22;11858;51.056;3.712;2024-02-23T10:36:18;8.70;99.90
23371;DHT22;11858;51.056;3.712;2024-02-23T10:38:46;9.00;99.90
23371;DHT22;11858;51.056;3.712;2024-02-23T10:41:13;9.20;99.90
23371;DHT22;11858;51.056;3.712;2024-02-23T10:43:48;9.20;99.90
23371;DHT22;11858;51.056;3.712;2024-02-23T10:46:15;9.40;99.90
23371;DHT22;11858;51.056;3.712;2024-02-23T10:48:41;9.20;99.90
23371;DHT22;11858;51.056;3.712;2024-02-23T10:51:08;9.00;99.90
23371;DHT22;11858;51.056;3.712;2024-02-23T10:53:36;9.00;99.90
23371;DHT22;11858;51.056;3.712;2024-02-23T10:56:03;8.90;99.90
23371;DHT22;11858;51.056;3.712;2024-02-23T10:58:30;8.90;99.90
23371;DHT22;11858;51.056;3.712;2024-02-23T11:01:04;9.00;99.90
23371;DHT22;11858;51.056;3.712;2024-02-23T11:03:32;9.00;99.90
23371;DHT22;11858;51.056;3.712;2024-02-23T11:05:59;8.80;99.90
23371;DHT22;11858;51.056;3.712;2024-02-23T11:08:37;8.90;99.90
23371;DHT22;11858;51.056;3.712;2024-02-23T11:11:10;8.90;99.90
23371;DHT22;11858;51.056;3.712;2024-02-23T11:13:39;8.60;99.90
23371;DHT22;11858;51.056;3.712;2024-02-23T11:16:07;8.70;99.90
23371;DHT22;11858;51.056;3.712;2024-02-23T11:18:35;8.50;99.90
23371;DHT22;11858;51.056;3.712;2024-02-23T11:21:02;8.70;99.90
23371;DHT22;11858;51.056;3.712;2024-02-23T11:24:01;8.60;99.90
23371;DHT22;11858;51.056;3.712;2024-02-23T11:26:28;8.50;99.90
23371;DHT22;11858;51.056;3.712;2024-02-23T11:28:54;8.50;99.90
23371;DHT22;11858;51.056;3.712;2024-02-23T11:31:23;8.70;99.90
23371;DHT22;11858;51.056;3.712;2024-02-23T11:36:22;8.70;99.90
23371;DHT22;11858;51.056;3.712;2024-02-23T11:38:56;9.00;99.90
23371;DHT22;11858;51.056;3.712;2024-02-23T11:41:23;9.30;99.90
23371;DHT22;11858;51.056;3.712;2024-02-23T11:43:50;9.40;99.90
23371;DHT22;11858;51.056;3.712;2024-02-23T11:46:17;9.30;99.90
23371;DHT22;11858;51.056;3.712;2024-02-23T11:48:43;9.10;99.90
23371;DHT22;11858;51.056;3.712;2024-02-23T11:51:10;9.20;99.90
23371;DHT22;11858;51.056;3.712;2024-02-23T11:53:39;8.90;99.90
23371;DHT22;11858;51.056;3.712;2024-02-23T11:56:05;9.10;99.90
23371;DHT22;11858;51.056;3.712;2024-02-23T11:58:32;9.30;99.90
23371;DHT22;11858;51.056;3.712;2024-02-23T12:01:00;9.30;99.90
23371;DHT22;11858;51.056;3.712;2024-02-23T12:03:28;9.30;99.90
23371;DHT22;11858;51.056;3.712;2024-02-23T12:05:59;9.50;99.90
23371;DHT22;11858;51.056;3.712;2024-02-23T12:08:26;9.50;99.90
23371;DHT22;11858;51.056;3.712;2024-02-23T12:10:54;9.60;99.90
23371;DHT22;11858;51.056;3.712;2024-02-23T12:13:20;9.50;99.90
23371;DHT22;11858;51.056;3.712;2024-02-23T12:15:47;9.40;99.90
23371;DHT22;11858;51.056;3.712;2024-02-23T12:18:13;9.20;99.90
23371;DHT22;11858;51.056;3.712;2024-02-23T12:20:40;9.20;99.90
23371;DHT22;11858;51.056;3.712;2024-02-23T12:23:06;9.30;99.90
23371;DHT22;11858;51.056;3.712;2024-02-23T12:25:33;9.30;99.90
23371;DHT22;11858;51.056;3.712;2024-02-23T12:27:59;9.20;99.90
23371;DHT22;11858;51.056;3.712;2024-02-23T12:30:26;9.20;99.90
23371;DHT22;11858;51.056;3.712;2024-02-23T12:33:06;9.60;99.90
23371;DHT22;11858;51.056;3.712;2024-02-23T12:35:34;10.00;99.90
23371;DHT22;11858;51.056;3.712;2024-02-23T12:38:01;10.50;99.90
23371;DHT22;11858;51.056;3.712;2024-02-23T12:40:27;11.30;99.90
23371;DHT22;11858;51.056;3.712;2024-02-23T12:42:52;11.80;99.90
23371;DHT22;11858;51.056;3.712;2024-02-23T12:45:18;12.20;99.90
23371;DHT22;11858;51.056;3.712;2024-02-23T12:47:44;11.70;99.90
23371;DHT22;11858;51.056;3.712;2024-02-23T12:50:10;11.30;99.90
23371;DHT22;11858;51.056;3.712;2024-02-23T12:52:36;11.00;99.90
23371;DHT22;11858;51.056;3.712;2024-02-23T12:55:02;11.00;99.90
23371;DHT22;11858;51.056;3.712;2024-02-23T12:57:28;11.00;99.90
23371;DHT22;11858;51.056;3.712;2024-02-23T12:59:55;10.80;99.90
23371;DHT22;11858;51.056;3.712;2024-02-23T13:02:21;10.90;99.90
23371;DHT22;11858;51.056;3.712;2024-02-23T13:04:47;11.50;99.90
23371;DHT22;11858;51.056;3.712;2024-02-23T13:07:17;11.30;99.90
23371;DHT22;11858;51.056;3.712;2024-02-23T13:09:44;11.50;99.90
23371;DHT22;11858;51.056;3.712;2024-02-23T13:12:09;11.90;99.90
23371;DHT22;11858;51.056;3.712;2024-02-23T13:14:35;13.20;99.90
23371;DHT22;11858;51.056;3.712;2024-02-23T13:17:01;14.10;99.90
23371;DHT22;11858;51.056;3.712;2024-02-23T13:19:27;14.30;99.90
23371;DHT22;11858;51.056;3.712;2024-02-23T13:21:53;15.00;99.90
23371;DHT22;11858;51.056;3.712;2024-02-23T13:24:18;15.00;99.90
23371;DHT22;11858;51.056;3.712;2024-02-23T13:26:44;15.40;99.90
23371;DHT22;11858;51.056;3.712;2024-02-23T13:29:10;15.90;99.90
23371;DHT22;11858;51.056;3.712;2024-02-23T13:31:36;16.60;99.90
23371;DHT22;11858;51.056;3.712;2024-02-23T13:34:03;16.80;99.90
23371;DHT22;11858;51.056;3.712;2024-02-23T13:36:29;15.90;99.90
23371;DHT22;11858;51.056;3.712;2024-02-23T13:38:55;15.30;99.90
23371;DHT22;11858;51.056;3.712;2024-02-23T13:41:21;14.10;99.90
23371;DHT22;11858;51.056;3.712;2024-02-23T13:43:47;13.60;99.90
23371;DHT22;11858;51.056;3.712;2024-02-23T13:46:12;14.00;99.90
23371;DHT22;11858;51.056;3.712;2024-02-23T13:48:38;14.80;99.90
23371;DHT22;11858;51.056;3.712;2024-02-23T13:51:04;15.50;99.90
23371;DHT22;11858;51.056;3.712;2024-02-23T13:53:31;16.10;99.90
23371;DHT22;11858;51.056;3.712;2024-02-23T13:55:58;15.50;99.90
23371;DHT22;11858;51.056;3.712;2024-02-23T13:58:24;15.10;99.90
23371;DHT22;11858;51.056;3.712;2024-02-23T14:00:50;14.80;99.90
23371;DHT22;11858;51.056;3.712;2024-02-23T14:03:17;13.50;99.90
23371;DHT22;11858;51.056;3.712;2024-02-23T14:05:46;13.20;99.90
23371;DHT22;11858;51.056;3.712;2024-02-23T14:08:12;13.00;99.90
23371;DHT22;11858;51.056;3.712;2024-02-23T14:10:39;13.70;99.90
23371;DHT22;11858;51.056;3.712;2024-02-23T14:13:05;14.70;99.90
23371;DHT22;11858;51.056;3.712;2024-02-23T14:15:32;14.10;99.90
23371;DHT22;11858;51.056;3.712;2024-02-23T14:17:58;13.10;99.90
23371;DHT22;11858;51.056;3.712;2024-02-23T14:20:24;12.50;99.90
23371;DHT22;11858;51.056;3.712;2024-02-23T14:22:49;12.00;99.90
23371;DHT22;11858;51.056;3.712;2024-02-23T14:25:16;11.50;99.90
23371;DHT22;11858;51.056;3.712;2024-02-23T14:27:41;11.00;99.90
23371;DHT22;11858;51.056;3.712;2024-02-23T14:30:08;10.30;99.90
23371;DHT22;11858;51.056;3.712;2024-02-23T14:32:34;9.70;99.90
23371;DHT22;11858;51.056;3.712;2024-02-23T14:35:02;8.90;99.90
23371;DHT22;11858;51.056;3.712;2024-02-23T14:37:29;8.40;99.90
23371;DHT22;11858;51.056;3.712;2024-02-23T14:39:54;8.40;99.90
23371;DHT22;11858;51.056;3.712;2024-02-23T14:42:20;8.00;99.90
23371;DHT22;11858;51.056;3.712;2024-02-23T14:44:46;8.00;99.90
23371;DHT22;11858;51.056;3.712;2024-02-23T14:47:12;7.80;99.90
23371;DHT22;11858;51.056;3.712;2024-02-23T14:49:38;7.90;99.90
23371;DHT22;11858;51.056;3.712;2024-02-23T14:52:04;8.00;99.90
23371;DHT22;11858;51.056;3.712;2024-02-23T14:54:31;8.80;99.90
23371;DHT22;11858;51.056;3.712;2024-02-23T14:56:58;9.80;99.90
23371;DHT22;11858;51.056;3.712;2024-02-23T14:59:24;10.20;99.90
23371;DHT22;11858;51.056;3.712;2024-02-23T15:01:50;10.90;99.90
23371;DHT22;11858;51.056;3.712;2024-02-23T15:04:16;12.00;99.90
23371;DHT22;11858;51.056;3.712;2024-02-23T15:06:42;12.30;99.90
23371;DHT22;11858;51.056;3.712;2024-02-23T15:09:08;12.80;99.90
23371;DHT22;11858;51.056;3.712;2024-02-23T15:11:34;13.10;99.90
23371;DHT22;11858;51.056;3.712;2024-02-23T15:14:00;13.40;99.90
23371;DHT22;11858;51.056;3.712;2024-02-23T15:16:27;13.80;99.90
23371;DHT22;11858;51.056;3.712;2024-02-23T15:18:54;13.70;99.90
23371;DHT22;11858;51.056;3.712;2024-02-23T15:21:20;13.60;99.90
23371;DHT22;11858;51.056;3.712;2024-02-23T15:23:46;13.80;99.90
23371;DHT22;11858;51.056;3.712;2024-02-23T15:26:12;13.20;99.90
23371;DHT22;11858;51.056;3.712;2024-02-23T15:28:38;13.50;99.90
23371;DHT22;11858;51.056;3.712;2024-02-23T15:31:04;13.50;99.90
23371;DHT22;11858;51.056;3.712;2024-02-23T15:33:30;13.60;99.90
23371;DHT22;11858;51.056;3.712;2024-02-23T15:35:56;13.90;99.90
23371;DHT22;11858;51.056;3.712;2024-02-23T15:38:22;13.90;99.90
23371;DHT22;11858;51.056;3.712;2024-02-23T15:40:48;13.30;99.90